ANX weather

And√łya Airport
Andenes, Nordland, Norway

Public forecast

Using degrees Celsius for public forecast. Weather courtesy of forecast.io.

METAR (pilot weather report)

Retrieved 2019/05/21 17:20 UTC (0 seconds ago):

ENAN 211720Z 04024KT 9999 FEW012 07/04 Q1018

TAF (pilot weather forecast)

Retrieved 2019/05/21 12:57 UTC (4 hours ago):

TAF TAF ENAN 211100Z 2112/2212 04022KT 9999 FEW012 TEMPO 2200/2212 03025G35KT